createdAt,value
2017-09-10T00:01:13.327Z,68.70
2017-09-10T00:03:41.517Z,69.10
2017-09-10T00:06:09.696Z,69.00
2017-09-10T00:08:37.869Z,68.90
2017-09-10T00:11:07.657Z,68.40
2017-09-10T00:13:35.819Z,68.30
2017-09-10T00:16:03.974Z,68.60
2017-09-10T00:18:32.158Z,68.30
2017-09-10T00:21:01.262Z,68.50
2017-09-10T00:23:29.438Z,68.40
2017-09-10T00:25:58.538Z,68.80
2017-09-10T00:28:26.752Z,68.60
2017-09-10T00:30:54.911Z,68.50
2017-09-10T00:33:23.070Z,68.40
2017-09-10T00:35:51.250Z,68.30
2017-09-10T00:38:19.416Z,68.60
2017-09-10T00:40:47.594Z,69.00
2017-09-10T00:43:15.743Z,69.20
2017-09-10T00:45:44.853Z,69.30
2017-09-10T00:48:13.036Z,69.30
2017-09-10T00:50:41.192Z,69.50
2017-09-10T00:53:09.366Z,69.60
2017-09-10T00:55:37.567Z,69.30
2017-09-10T00:58:05.738Z,69.40
2017-09-10T01:00:33.906Z,69.80
2017-09-10T01:03:02.494Z,69.60
2017-09-10T01:05:30.659Z,69.50
2017-09-10T01:07:58.823Z,69.90
2017-09-10T01:10:27.006Z,70.20
2017-09-10T01:12:55.185Z,70.30
2017-09-10T01:15:23.339Z,70.50
2017-09-10T01:17:51.501Z,70.50
2017-09-10T01:20:19.674Z,70.80
2017-09-10T01:22:48.501Z,70.40
2017-09-10T01:25:16.654Z,70.20
2017-09-10T01:27:44.805Z,70.20
2017-09-10T01:30:12.992Z,70.20
2017-09-10T01:32:41.172Z,70.50
2017-09-10T01:35:10.380Z,70.40
2017-09-10T01:37:38.543Z,70.40
2017-09-10T01:40:06.691Z,70.20
2017-09-10T01:42:34.848Z,70.40
2017-09-10T01:45:03.046Z,70.40
2017-09-10T01:47:31.993Z,70.20
2017-09-10T01:50:00.142Z,70.20
2017-09-10T01:52:28.301Z,70.50
2017-09-10T01:54:56.494Z,70.50
2017-09-10T01:57:25.347Z,70.40
2017-09-10T01:59:53.519Z,70.40
2017-09-10T02:02:21.703Z,70.40
2017-09-10T02:04:50.834Z,70.50
2017-09-10T02:07:19.009Z,70.60
2017-09-10T02:09:48.156Z,70.90
2017-09-10T02:12:16.331Z,71.40
2017-09-10T02:14:45.029Z,71.10
2017-09-10T02:17:13.197Z,71.00
2017-09-10T02:19:42.137Z,71.20
2017-09-10T02:22:10.305Z,71.20
2017-09-10T02:24:39.503Z,71.00
2017-09-10T02:27:07.669Z,70.70
2017-09-10T02:29:35.830Z,71.00
2017-09-10T02:32:04.001Z,70.80
2017-09-10T02:34:32.176Z,70.50
2017-09-10T02:37:00.360Z,70.40
2017-09-10T02:39:28.520Z,70.90
2017-09-10T02:41:56.710Z,70.70
2017-09-10T02:44:24.874Z,70.60
2017-09-10T02:46:53.046Z,70.70
2017-09-10T02:49:22.256Z,70.50
2017-09-10T02:51:50.435Z,70.70
2017-09-10T02:54:18.588Z,70.60
2017-09-10T02:56:47.525Z,70.80
2017-09-10T02:59:16.682Z,70.80
2017-09-10T03:01:44.841Z,70.90
2017-09-10T03:04:13.024Z,71.50
2017-09-10T03:06:41.209Z,71.40
2017-09-10T03:09:09.375Z,71.70
2017-09-10T03:11:37.543Z,71.80
2017-09-10T03:14:05.718Z,71.80
2017-09-10T03:16:33.896Z,71.70
2017-09-10T03:19:02.089Z,71.50
2017-09-10T03:21:30.261Z,71.70
2017-09-10T03:23:58.425Z,71.80
2017-09-10T03:26:26.622Z,72.50
2017-09-10T03:28:55.834Z,72.90
2017-09-10T03:31:24.060Z,73.70
2017-09-10T03:33:53.003Z,73.20
2017-09-10T03:36:21.913Z,72.80
2017-09-10T03:38:51.387Z,72.70
2017-09-10T03:41:19.567Z,72.60
2017-09-10T03:43:47.765Z,72.50
2017-09-10T03:46:15.943Z,72.40
2017-09-10T03:48:45.825Z,73.00
2017-09-10T03:51:14.911Z,72.90
2017-09-10T03:53:43.529Z,72.90
2017-09-10T03:56:11.676Z,73.40
2017-09-10T03:58:39.996Z,73.10
2017-09-10T04:01:08.174Z,72.80
2017-09-10T04:03:36.337Z,72.50
2017-09-10T04:06:05.274Z,72.10
2017-09-10T04:08:33.452Z,72.10
2017-09-10T04:11:01.622Z,72.00
2017-09-10T04:13:29.777Z,72.00
2017-09-10T04:29:16.622Z,72.30
2017-09-10T04:31:44.775Z,72.60
2017-09-10T04:34:12.931Z,73.10
2017-09-10T04:36:42.737Z,73.20
2017-09-10T04:39:10.889Z,73.00
2017-09-10T04:41:39.806Z,72.70
2017-09-10T04:44:07.965Z,72.70
2017-09-10T04:46:37.051Z,72.70
2017-09-10T04:49:05.221Z,72.70
2017-09-10T04:51:34.146Z,72.90
2017-09-10T04:54:02.346Z,72.90
2017-09-10T04:56:31.436Z,73.00
2017-09-10T04:58:59.588Z,73.70
2017-09-10T05:01:28.780Z,73.60
2017-09-10T05:03:56.953Z,73.80
2017-09-10T05:06:25.114Z,74.20
2017-09-10T05:08:53.281Z,74.20
2017-09-10T05:11:21.466Z,74.30
2017-09-10T05:13:49.667Z,74.30
2017-09-10T05:16:17.866Z,74.70
2017-09-10T05:18:46.074Z,74.70
2017-09-10T05:21:14.245Z,75.10
2017-09-10T05:23:42.428Z,75.60
2017-09-10T05:26:10.617Z,75.50
2017-09-10T05:28:38.779Z,75.10
2017-09-10T05:31:08.619Z,74.90
2017-09-10T05:33:36.781Z,74.60
2017-09-10T05:36:04.942Z,75.00
2017-09-10T05:38:33.106Z,74.80
2017-09-10T05:41:02.042Z,74.10
2017-09-10T05:43:30.216Z,74.10
2017-09-10T05:45:58.374Z,74.10
2017-09-10T05:48:26.561Z,74.40
2017-09-10T05:50:54.723Z,74.50
2017-09-10T05:53:22.877Z,74.00
2017-09-10T05:55:51.069Z,74.00
2017-09-10T05:58:19.207Z,73.90
2017-09-10T06:00:47.401Z,73.80
2017-09-10T06:03:15.573Z,73.90
2017-09-10T06:05:43.730Z,73.90
2017-09-10T06:08:12.660Z,74.00
2017-09-10T06:10:40.833Z,73.90
2017-09-10T06:13:08.995Z,73.90
2017-09-10T06:15:37.156Z,74.00
2017-09-10T06:18:05.324Z,74.20
2017-09-10T06:20:34.256Z,73.90
2017-09-10T06:23:02.424Z,73.90
2017-09-10T06:25:30.585Z,74.20
2017-09-10T06:27:58.763Z,74.60
2017-09-10T06:30:26.935Z,75.20
2017-09-10T06:32:55.103Z,75.00
2017-09-10T06:35:23.245Z,74.90
2017-09-10T06:37:51.413Z,74.30
2017-09-10T06:40:20.370Z,74.70
2017-09-10T06:42:49.204Z,74.70
2017-09-10T06:45:17.390Z,74.30
2017-09-10T06:47:46.321Z,73.80
2017-09-10T06:50:14.487Z,74.40
2017-09-10T06:52:42.691Z,73.50
2017-09-10T06:55:10.848Z,74.40
2017-09-10T06:57:39.038Z,74.20
2017-09-10T07:00:07.197Z,72.90
2017-09-10T07:02:35.355Z,73.10
2017-09-10T07:05:03.559Z,73.00
2017-09-10T07:07:31.716Z,72.90
2017-09-10T07:09:59.910Z,72.90
2017-09-10T07:12:28.095Z,72.60
2017-09-10T07:14:56.249Z,72.60
2017-09-10T07:17:24.434Z,72.50
2017-09-10T07:19:52.610Z,72.20
2017-09-10T07:22:20.783Z,71.60
2017-09-10T07:24:48.970Z,72.00
2017-09-10T07:27:17.132Z,71.30
2017-09-10T07:29:45.310Z,70.70
2017-09-10T07:32:13.479Z,71.10
2017-09-10T07:34:41.641Z,71.00
2017-09-10T07:37:09.813Z,70.80
2017-09-10T07:39:37.975Z,71.10
2017-09-10T07:42:06.160Z,70.10
2017-09-10T07:44:34.302Z,69.00
2017-09-10T07:47:02.516Z,68.90
2017-09-10T07:49:30.680Z,69.00
2017-09-10T07:51:58.841Z,68.80
2017-09-10T07:54:27.036Z,68.90
2017-09-10T07:56:55.219Z,69.00
2017-09-10T07:59:23.418Z,69.10
2017-09-10T08:01:51.580Z,69.80
2017-09-10T08:04:19.830Z,70.00
2017-09-10T08:06:48.001Z,70.10
2017-09-10T08:09:16.171Z,69.70
2017-09-10T08:11:44.389Z,69.60
2017-09-10T08:14:12.539Z,69.80
2017-09-10T08:16:40.744Z,69.20
2017-09-10T08:19:08.961Z,69.30
2017-09-10T08:21:37.180Z,69.60
2017-09-10T08:24:05.351Z,67.80
2017-09-10T08:26:33.505Z,67.90
2017-09-10T08:29:01.700Z,68.90
2017-09-10T08:31:29.910Z,68.40
2017-09-10T08:33:58.827Z,67.50
2017-09-10T08:36:27.001Z,67.50
2017-09-10T08:38:55.759Z,67.50
2017-09-10T08:41:24.716Z,68.30
2017-09-10T08:43:53.704Z,68.30
2017-09-10T08:46:21.875Z,68.10
2017-09-10T08:48:50.138Z,66.90
2017-09-10T08:51:18.496Z,67.30
2017-09-10T08:53:47.549Z,66.90
2017-09-10T08:56:15.712Z,66.90
2017-09-10T08:58:46.557Z,67.40
2017-09-10T09:01:15.520Z,66.20
2017-09-10T09:03:43.696Z,66.70
2017-09-10T09:06:11.926Z,66.20
2017-09-10T09:08:40.834Z,65.80
2017-09-10T09:11:09.087Z,65.70
2017-09-10T09:13:37.306Z,67.00
2017-09-10T09:16:05.712Z,66.40
2017-09-10T09:18:33.935Z,64.80
2017-09-10T09:21:02.167Z,65.00
2017-09-10T09:23:30.326Z,64.00
2017-09-10T09:25:58.567Z,63.70
2017-09-10T09:28:27.683Z,63.00
2017-09-10T09:30:55.885Z,62.10
2017-09-10T09:33:24.048Z,60.40
2017-09-10T09:35:53.014Z,59.80
2017-09-10T09:38:21.222Z,59.80
2017-09-10T09:40:49.392Z,57.50
2017-09-10T09:43:17.564Z,59.20
2017-09-10T09:45:45.750Z,59.40
2017-09-10T09:48:14.701Z,59.80
2017-09-10T09:50:42.837Z,59.80
2017-09-10T09:53:12.888Z,60.80
2017-09-10T09:55:41.042Z,60.80
2017-09-10T09:58:09.235Z,60.10
2017-09-10T10:00:37.408Z,60.90
2017-09-10T10:03:05.564Z,60.30
2017-09-10T10:05:33.750Z,60.30
2017-09-10T10:08:01.965Z,61.40
2017-09-10T10:10:30.158Z,61.60
2017-09-10T10:12:59.317Z,62.10
2017-09-10T10:15:27.531Z,62.00
2017-09-10T10:17:56.849Z,63.30
2017-09-10T10:20:25.792Z,63.20
2017-09-10T10:22:55.002Z,63.20
2017-09-10T10:25:23.171Z,60.60
2017-09-10T10:27:52.152Z,61.30
2017-09-10T10:30:20.845Z,61.20
2017-09-10T10:32:49.080Z,60.60
2017-09-10T10:35:18.623Z,57.80
2017-09-10T10:37:46.812Z,57.20
2017-09-10T10:40:14.950Z,57.80
2017-09-10T10:42:43.143Z,58.60
2017-09-10T10:45:11.349Z,58.00
2017-09-10T10:47:39.521Z,58.30
2017-09-10T10:50:07.680Z,57.30
2017-09-10T10:52:35.854Z,57.30
2017-09-10T10:55:04.773Z,55.90
2017-09-10T10:57:34.753Z,54.60
2017-09-10T11:00:02.954Z,54.50
2017-09-10T11:02:31.139Z,55.00
2017-09-10T11:04:59.329Z,53.80
2017-09-10T11:07:28.249Z,54.20
2017-09-10T11:09:56.412Z,54.20
2017-09-10T11:12:25.435Z,52.60
2017-09-10T11:14:53.603Z,52.60
2017-09-10T11:17:21.841Z,53.90
2017-09-10T11:19:50.094Z,54.30
2017-09-10T11:22:20.099Z,56.00
2017-09-10T11:24:48.275Z,56.00
2017-09-10T11:27:16.642Z,55.80
2017-09-10T11:29:44.845Z,55.30
2017-09-10T11:32:14.803Z,56.10
2017-09-10T11:34:43.587Z,56.00
2017-09-10T11:37:11.741Z,54.70
2017-09-10T11:39:39.920Z,53.90
2017-09-10T11:42:08.105Z,53.70
2017-09-10T11:44:36.298Z,54.40
2017-09-10T11:47:06.274Z,53.00
2017-09-10T11:49:34.450Z,52.90
2017-09-10T11:52:02.656Z,52.90
2017-09-10T11:54:32.164Z,52.50
2017-09-10T11:57:01.280Z,52.50
2017-09-10T11:59:29.975Z,52.90
2017-09-10T12:01:58.167Z,50.90
2017-09-10T12:04:26.353Z,50.10
2017-09-10T12:06:55.122Z,50.90
2017-09-10T12:09:23.261Z,51.00
2017-09-10T12:11:51.547Z,50.40
2017-09-10T12:14:19.767Z,51.70
2017-09-10T12:16:47.956Z,49.50
2017-09-10T12:19:16.917Z,49.60
2017-09-10T12:21:45.593Z,49.60
2017-09-10T12:24:13.774Z,50.50
2017-09-10T12:26:42.702Z,50.60
2017-09-10T12:29:10.895Z,50.60
2017-09-10T12:31:39.082Z,51.20
2017-09-10T12:34:08.021Z,52.40
2017-09-10T12:36:36.201Z,52.30
2017-09-10T12:39:04.374Z,52.60
2017-09-10T12:41:32.618Z,52.20
2017-09-10T12:44:01.561Z,52.70
2017-09-10T12:46:29.738Z,52.60
2017-09-10T12:48:57.965Z,51.10
2017-09-10T12:51:26.242Z,50.90
2017-09-10T12:53:54.454Z,52.20
2017-09-10T12:56:22.632Z,51.70
2017-09-10T12:58:50.849Z,50.40
2017-09-10T13:01:19.033Z,50.80
2017-09-10T13:03:47.245Z,50.80
2017-09-10T13:06:16.117Z,51.00
2017-09-10T13:08:45.265Z,50.70
2017-09-10T13:11:13.470Z,50.70
2017-09-10T13:13:41.674Z,51.50
2017-09-10T13:16:09.889Z,51.50
2017-09-10T13:18:38.150Z,49.70
2017-09-10T13:21:06.348Z,49.80
2017-09-10T13:23:35.333Z,50.00
2017-09-10T13:26:04.295Z,50.50
2017-09-10T13:28:32.501Z,49.90
2017-09-10T13:31:00.683Z,49.60
2017-09-10T13:33:29.608Z,49.00
2017-09-10T13:35:58.696Z,49.00
2017-09-10T13:38:26.866Z,48.90
2017-09-10T13:40:55.092Z,48.70
2017-09-10T13:43:24.033Z,48.10
2017-09-10T13:45:52.204Z,48.20
2017-09-10T13:48:20.396Z,49.60
2017-09-10T13:50:48.558Z,49.70
2017-09-10T13:53:16.750Z,48.90
2017-09-10T13:55:45.845Z,49.30
2017-09-10T13:58:14.008Z,49.40
2017-09-10T14:00:42.812Z,50.70
2017-09-10T14:03:10.983Z,51.70
2017-09-10T14:05:39.162Z,50.90
2017-09-10T14:08:07.357Z,51.30
2017-09-10T14:10:35.553Z,50.20
2017-09-10T14:13:04.503Z,50.00
2017-09-10T14:15:33.242Z,49.80
2017-09-10T14:18:02.183Z,50.90
2017-09-10T14:20:31.155Z,48.00
2017-09-10T14:22:59.370Z,48.00
2017-09-10T14:25:27.551Z,48.50
2017-09-10T14:27:55.734Z,49.10
2017-09-10T14:30:23.928Z,45.60
2017-09-10T14:32:52.134Z,42.50
2017-09-10T14:35:20.308Z,39.20
2017-09-10T14:37:48.558Z,36.70
2017-09-10T14:40:16.733Z,33.90
2017-09-10T14:42:44.921Z,32.00
2017-09-10T14:45:13.095Z,29.90
2017-09-10T14:47:41.253Z,29.50
2017-09-10T14:50:09.458Z,29.70
2017-09-10T14:52:38.265Z,28.20
2017-09-10T14:55:06.453Z,28.20
2017-09-10T14:57:35.400Z,27.70
2017-09-10T15:00:04.817Z,27.60
2017-09-10T15:02:32.996Z,25.90
2017-09-10T15:05:01.165Z,26.80
2017-09-10T15:07:29.342Z,27.10
2017-09-10T15:09:58.492Z,26.40
2017-09-10T15:12:26.688Z,27.10
2017-09-10T15:14:54.846Z,27.30
2017-09-10T15:17:23.017Z,29.40
2017-09-10T15:19:51.208Z,28.60
2017-09-10T15:22:19.379Z,26.40
2017-09-10T15:24:48.563Z,25.30
2017-09-10T15:27:16.756Z,26.60
2017-09-10T15:29:45.093Z,26.40
2017-09-10T15:32:14.680Z,25.50
2017-09-10T15:34:42.844Z,25.40
2017-09-10T15:37:11.035Z,26.80
2017-09-10T15:39:39.210Z,27.30
2017-09-10T15:42:08.144Z,26.20
2017-09-10T15:44:36.325Z,26.20
2017-09-10T15:47:04.548Z,25.00
2017-09-10T15:49:33.534Z,24.50
2017-09-10T15:52:01.730Z,24.10
2017-09-10T15:54:30.701Z,24.70
2017-09-10T15:56:58.883Z,24.60
2017-09-10T15:59:27.897Z,24.50
2017-09-10T16:01:58.713Z,24.40
2017-09-10T16:04:26.884Z,24.30
2017-09-10T16:06:56.244Z,25.30
2017-09-10T16:09:25.983Z,25.20
2017-09-10T16:11:55.931Z,24.60
2017-09-10T16:14:24.105Z,24.60
2017-09-10T16:16:52.277Z,23.40
2017-09-10T16:19:20.466Z,22.80
2017-09-10T16:21:48.636Z,22.60
2017-09-10T16:24:16.900Z,22.70
2017-09-10T16:26:45.081Z,22.40
2017-09-10T16:29:14.009Z,23.70
2017-09-10T16:31:42.227Z,23.10
2017-09-10T16:34:10.417Z,24.20
2017-09-10T16:36:38.619Z,25.10
2017-09-10T16:39:07.552Z,28.90
2017-09-10T16:41:35.800Z,28.90
2017-09-10T16:44:04.706Z,33.90
2017-09-10T16:46:32.905Z,33.80
2017-09-10T16:49:01.067Z,36.00
2017-09-10T16:51:29.257Z,36.90
2017-09-10T16:53:57.417Z,38.30
2017-09-10T16:56:25.666Z,39.90
2017-09-10T16:58:53.859Z,40.60
2017-09-10T17:01:22.018Z,43.00
2017-09-10T17:03:50.213Z,44.00
2017-09-10T17:06:19.253Z,45.20
2017-09-10T17:08:47.429Z,45.20
2017-09-10T17:11:16.361Z,45.20
2017-09-10T17:13:44.544Z,44.90
2017-09-10T17:16:12.717Z,45.60
2017-09-10T17:18:41.498Z,45.80
2017-09-10T17:21:09.665Z,45.70
2017-09-10T17:23:37.866Z,45.60
2017-09-10T17:26:06.047Z,45.90
2017-09-10T17:28:34.279Z,46.50
2017-09-10T17:31:02.501Z,46.90
2017-09-10T17:33:30.655Z,47.10
2017-09-10T17:35:58.840Z,47.40
2017-09-10T17:38:28.372Z,48.40
2017-09-10T17:40:56.561Z,48.60
2017-09-10T17:43:24.722Z,48.80
2017-09-10T17:45:52.899Z,49.10
2017-09-10T17:48:21.129Z,49.30
2017-09-10T17:50:49.289Z,49.40
2017-09-10T17:53:18.848Z,49.40
2017-09-10T17:55:47.045Z,49.80
2017-09-10T17:58:15.271Z,49.60
2017-09-10T18:00:43.459Z,49.60
2017-09-10T18:03:11.642Z,49.90
2017-09-10T18:05:40.107Z,50.50
2017-09-10T18:08:08.290Z,50.50
2017-09-10T18:10:36.495Z,50.40
2017-09-10T18:13:04.675Z,51.00
2017-09-10T18:15:33.672Z,52.10
2017-09-10T18:18:01.887Z,52.00
2017-09-10T18:20:30.039Z,52.80
2017-09-10T18:22:58.495Z,53.50
2017-09-10T18:25:26.674Z,53.40
2017-09-10T18:27:54.916Z,53.90
2017-09-10T18:30:23.189Z,54.00
2017-09-10T18:32:51.325Z,54.20
2017-09-10T18:35:19.546Z,55.80
2017-09-10T18:37:47.738Z,55.50
2017-09-10T18:40:15.926Z,56.90
2017-09-10T18:42:44.776Z,57.60
2017-09-10T18:45:12.965Z,57.50
2017-09-10T18:47:42.033Z,57.30
2017-09-10T18:50:10.232Z,56.50
2017-09-10T18:52:38.438Z,57.10
2017-09-10T18:55:06.635Z,57.40
2017-09-10T18:57:35.604Z,58.30
2017-09-10T19:00:03.794Z,58.30
2017-09-10T19:02:32.933Z,58.10
2017-09-10T19:05:01.876Z,58.20
2017-09-10T19:07:30.080Z,58.20
2017-09-10T19:09:58.252Z,58.30
2017-09-10T19:12:26.444Z,59.10
2017-09-10T19:14:54.637Z,59.50
2017-09-10T19:17:23.831Z,60.10
2017-09-10T19:19:52.035Z,60.70
2017-09-10T19:22:20.987Z,62.10
2017-09-10T19:24:49.174Z,62.20
2017-09-10T19:27:17.348Z,61.40
2017-09-10T19:29:46.377Z,60.40
2017-09-10T19:32:15.298Z,59.60
2017-09-10T19:34:43.463Z,59.60
2017-09-10T19:37:11.650Z,60.30
2017-09-10T19:39:39.840Z,60.80
2017-09-10T19:42:08.005Z,61.20
2017-09-10T19:44:37.126Z,61.30
2017-09-10T19:47:05.714Z,60.80
2017-09-10T19:49:33.891Z,61.10
2017-09-10T19:52:02.074Z,60.80
2017-09-10T19:54:30.246Z,60.30
2017-09-10T19:56:59.227Z,61.00
2017-09-10T19:59:27.392Z,60.40
2017-09-10T20:01:55.640Z,59.90
2017-09-10T20:04:23.837Z,59.70
2017-09-10T20:06:51.995Z,60.30
2017-09-10T20:09:20.191Z,60.70
2017-09-10T20:11:48.356Z,61.70
2017-09-10T20:14:17.392Z,61.20
2017-09-10T20:16:46.494Z,62.20
2017-09-10T20:19:14.680Z,62.10
2017-09-10T20:21:42.854Z,61.30
2017-09-10T20:24:11.024Z,61.20
2017-09-10T20:26:39.197Z,61.60
2017-09-10T20:29:07.387Z,61.60
2017-09-10T20:31:35.544Z,61.70
2017-09-10T20:34:03.723Z,61.80
2017-09-10T20:36:31.892Z,61.70
2017-09-10T20:39:00.083Z,61.60
2017-09-10T20:41:28.271Z,61.70
2017-09-10T20:43:56.668Z,61.90
2017-09-10T20:46:24.838Z,61.70
2017-09-10T20:48:53.202Z,63.10
2017-09-10T20:51:21.980Z,62.80
2017-09-10T20:53:50.151Z,62.80
2017-09-10T20:56:18.377Z,63.30
2017-09-10T20:58:46.565Z,63.00
2017-09-10T21:01:14.745Z,62.90
2017-09-10T21:03:43.691Z,63.30
2017-09-10T21:06:11.873Z,63.20
2017-09-10T21:08:40.034Z,63.80
2017-09-10T21:11:08.215Z,63.50
2017-09-10T21:13:36.390Z,63.30
2017-09-10T21:16:04.558Z,63.30
2017-09-10T21:18:32.740Z,63.60
2017-09-10T21:21:00.903Z,63.70
2017-09-10T21:23:29.081Z,63.70
2017-09-10T21:25:57.299Z,63.60
2017-09-10T21:28:25.467Z,64.30
2017-09-10T21:30:54.382Z,64.40
2017-09-10T21:33:22.544Z,64.40
2017-09-10T21:35:50.714Z,64.40
2017-09-10T21:38:18.891Z,64.80
2017-09-10T21:40:47.062Z,64.40
2017-09-10T21:43:15.223Z,64.20
2017-09-10T21:45:43.405Z,64.50
2017-09-10T21:48:11.643Z,63.80
2017-09-10T21:50:39.802Z,63.40
2017-09-10T21:53:08.003Z,64.60
2017-09-10T21:55:36.152Z,64.90
2017-09-10T21:58:04.375Z,64.90
2017-09-10T22:00:32.538Z,64.90
2017-09-10T22:03:00.707Z,64.40
2017-09-10T22:05:29.661Z,65.10
2017-09-10T22:07:57.829Z,64.50
2017-09-10T22:10:25.978Z,64.50
2017-09-10T22:12:54.719Z,64.60
2017-09-10T22:15:22.859Z,65.20
2017-09-10T22:17:51.002Z,65.40
2017-09-10T22:20:19.170Z,65.70
2017-09-10T22:22:48.100Z,65.40
2017-09-10T22:25:16.312Z,65.40
2017-09-10T22:27:44.485Z,65.30
2017-09-10T22:30:12.621Z,65.00
2017-09-10T22:32:40.795Z,65.10
2017-09-10T22:35:08.955Z,65.60
2017-09-10T22:37:37.158Z,66.60
2017-09-10T22:40:05.315Z,66.40
2017-09-10T22:42:33.488Z,65.60
2017-09-10T22:45:01.645Z,66.00
2017-09-10T22:47:30.373Z,65.60
2017-09-10T22:49:58.539Z,65.50
2017-09-10T22:52:26.698Z,65.40
2017-09-10T22:54:54.883Z,65.10
2017-09-10T22:57:23.022Z,65.30
2017-09-10T22:59:51.202Z,65.80
2017-09-10T23:02:19.356Z,65.60
2017-09-10T23:04:47.526Z,65.50
2017-09-10T23:07:15.682Z,65.60
2017-09-10T23:09:43.863Z,66.40
2017-09-10T23:12:12.027Z,67.00
2017-09-10T23:14:40.195Z,67.00
2017-09-10T23:17:08.375Z,67.70
2017-09-10T23:19:36.566Z,67.40
2017-09-10T23:22:05.520Z,66.90
2017-09-10T23:24:33.689Z,66.80
2017-09-10T23:27:01.856Z,66.90
2017-09-10T23:29:30.030Z,66.60
2017-09-10T23:31:59.103Z,66.90
2017-09-10T23:34:27.266Z,66.80
2017-09-10T23:36:55.456Z,66.50
2017-09-10T23:39:23.635Z,66.40
2017-09-10T23:41:51.795Z,66.50
2017-09-10T23:44:19.949Z,66.60
2017-09-10T23:46:48.121Z,66.20
2017-09-10T23:49:17.043Z,67.90
2017-09-10T23:51:46.013Z,67.00
2017-09-10T23:54:14.151Z,67.00
2017-09-10T23:56:42.326Z,66.80
2017-09-10T23:59:10.479Z,66.90
